createdAt,value
2023-09-28T00:04:45.570Z,5.90
2023-09-28T00:09:48.814Z,4.25
2023-09-28T00:14:53.948Z,4.95
2023-09-28T00:19:56.555Z,4.55
2023-09-28T00:24:58.925Z,5.65
2023-09-28T00:30:00.930Z,5.55
2023-09-28T00:40:34.695Z,5.30
2023-09-28T00:45:38.433Z,4.22
2023-09-28T00:50:41.357Z,6.80
2023-09-28T00:55:44.604Z,7.50
2023-09-28T01:00:48.202Z,5.75
2023-09-28T01:05:50.533Z,6.47
2023-09-28T01:10:56.139Z,5.93
2023-09-28T01:16:00.312Z,5.45
2023-09-28T01:21:05.113Z,5.20
2023-09-28T01:26:08.565Z,5.40
2023-09-28T01:31:11.600Z,5.88
2023-09-28T01:36:15.235Z,8.15
2023-09-28T01:41:22.847Z,5.35
2023-09-28T01:46:26.435Z,9.23
2023-09-28T01:51:29.017Z,5.57
2023-09-28T01:56:31.480Z,6.55
2023-09-28T02:01:33.471Z,6.78
2023-09-28T02:06:35.918Z,7.88
2023-09-28T02:11:44.854Z,5.20
2023-09-28T02:16:46.817Z,6.40
2023-09-28T02:21:49.970Z,6.32
2023-09-28T02:26:56.303Z,5.07
2023-09-28T02:31:59.313Z,4.95
2023-09-28T02:37:06.011Z,5.65
2023-09-28T02:42:09.227Z,8.38
2023-09-28T02:47:13.160Z,5.30
2023-09-28T02:52:15.785Z,7.82
2023-09-28T02:57:19.628Z,6.57
2023-09-28T03:02:22.278Z,7.57
2023-09-28T03:07:24.642Z,5.57
2023-09-28T03:12:28.999Z,6.38
2023-09-28T03:17:33.651Z,6.43
2023-09-28T03:22:36.257Z,4.85
2023-09-28T03:27:38.326Z,5.90
2023-09-28T03:32:40.735Z,4.40
2023-09-28T03:37:45.992Z,5.85
2023-09-28T03:42:51.883Z,5.47
2023-09-28T03:47:55.029Z,5.95
2023-09-28T03:52:57.326Z,6.63
2023-09-28T03:58:03.214Z,4.43
2023-09-28T04:03:05.764Z,5.90
2023-09-28T04:08:08.517Z,5.05
2023-09-28T04:13:11.786Z,4.47
2023-09-28T04:18:13.707Z,6.88
2023-09-28T04:23:18.108Z,6.00
2023-09-28T04:28:26.648Z,8.20
2023-09-28T04:33:28.905Z,4.53
2023-09-28T04:38:31.098Z,6.05
2023-09-28T04:43:33.520Z,4.32
2023-09-28T04:48:39.233Z,4.70
2023-09-28T04:53:41.374Z,3.88
2023-09-28T05:04:01.540Z,3.97
2023-09-28T05:09:05.519Z,4.68
2023-09-28T05:14:10.199Z,5.32
2023-09-28T05:19:12.205Z,4.60
2023-09-28T05:24:17.392Z,4.20
2023-09-28T05:29:19.751Z,5.75
2023-09-28T05:34:22.141Z,5.03
2023-09-28T05:39:24.924Z,5.28
2023-09-28T05:44:28.103Z,5.15
2023-09-28T05:49:34.095Z,5.78
2023-09-28T05:54:35.961Z,4.68
2023-09-28T05:59:38.284Z,5.45
2023-09-28T06:04:41.473Z,7.25
2023-09-28T06:09:46.977Z,6.00
2023-09-28T06:14:54.216Z,4.50
2023-09-28T06:19:58.498Z,5.35
2023-09-28T06:25:04.502Z,3.75
2023-09-28T06:30:29.556Z,4.32
2023-09-28T06:35:39.507Z,5.35
2023-09-28T06:40:43.678Z,5.05
2023-09-28T06:45:45.574Z,4.88
2023-09-28T06:50:48.232Z,4.90
2023-09-28T06:56:03.853Z,4.15
2023-09-28T07:01:15.639Z,4.93
2023-09-28T07:06:22.795Z,5.43
2023-09-28T07:11:31.070Z,7.72
2023-09-28T07:16:40.579Z,4.70
2023-09-28T07:21:46.239Z,4.68
2023-09-28T07:26:48.641Z,4.75
2023-09-28T07:31:54.040Z,5.15
2023-09-28T07:36:56.080Z,5.50
2023-09-28T07:41:59.976Z,4.03
2023-09-28T07:47:02.125Z,4.20
2023-09-28T07:52:04.497Z,5.93
2023-09-28T07:57:08.560Z,5.03
2023-09-28T08:02:13.320Z,6.15
2023-09-28T08:07:15.273Z,5.22
2023-09-28T08:12:17.148Z,5.43
2023-09-28T08:17:19.534Z,6.90
2023-09-28T08:22:24.116Z,4.45
2023-09-28T08:27:26.790Z,6.40
2023-09-28T08:32:28.991Z,3.95
2023-09-28T08:37:33.573Z,4.43
2023-09-28T08:42:39.468Z,4.05
2023-09-28T08:47:50.005Z,4.28
2023-09-28T08:52:54.912Z,6.15
2023-09-28T08:57:56.754Z,4.63
2023-09-28T09:03:00.491Z,4.55
2023-09-28T09:08:03.619Z,4.95
2023-09-28T09:13:05.485Z,4.70
2023-09-28T09:18:07.791Z,4.78
2023-09-28T09:23:13.635Z,4.18
2023-09-28T09:28:34.555Z,4.93
2023-09-28T09:33:37.277Z,4.53
2023-09-28T09:38:39.260Z,5.13
2023-09-28T09:43:45.229Z,5.20
2023-09-28T09:48:47.501Z,5.47
2023-09-28T09:53:49.674Z,5.78
2023-09-28T09:58:53.802Z,4.53
2023-09-28T10:04:00.315Z,6.18
2023-09-28T10:09:05.869Z,4.32
2023-09-28T10:14:09.589Z,4.97
2023-09-28T10:19:18.794Z,4.70
2023-09-28T10:24:36.542Z,5.40
2023-09-28T10:29:40.916Z,6.72
2023-09-28T10:34:44.624Z,6.80
2023-09-28T10:39:54.017Z,7.05
2023-09-28T10:44:57.654Z,4.85
2023-09-28T10:50:08.658Z,5.93
2023-09-28T10:55:12.816Z,5.78
2023-09-28T11:00:15.862Z,4.05
2023-09-28T11:05:21.786Z,4.18
2023-09-28T11:10:26.273Z,6.00
2023-09-28T11:15:30.795Z,3.63
2023-09-28T11:20:33.255Z,4.55
2023-09-28T11:25:45.513Z,2.22
2023-09-28T11:31:04.174Z,3.08
2023-09-28T11:36:12.714Z,2.85
2023-09-28T11:41:15.519Z,2.70
2023-09-28T11:46:29.342Z,2.25
2023-09-28T11:51:36.771Z,2.67
2023-09-28T11:56:41.422Z,2.03
2023-09-28T12:01:59.236Z,1.52
2023-09-28T12:07:03.540Z,1.15
2023-09-28T12:12:05.725Z,2.17
2023-09-28T12:17:12.725Z,1.33
2023-09-28T12:22:17.174Z,1.95
2023-09-28T12:27:34.089Z,1.10
2023-09-28T12:32:36.496Z,1.25
2023-09-28T12:37:43.228Z,1.55
2023-09-28T12:42:47.290Z,1.73
2023-09-28T12:47:49.857Z,1.58
2023-09-28T12:52:53.061Z,1.90
2023-09-28T12:57:57.149Z,2.17
2023-09-28T13:02:59.202Z,1.83
2023-09-28T13:08:05.770Z,2.20
2023-09-28T13:13:08.169Z,1.92
2023-09-28T13:18:15.612Z,2.38
2023-09-28T13:23:23.367Z,2.22
2023-09-28T13:28:25.729Z,3.45
2023-09-28T13:33:34.822Z,2.95
2023-09-28T13:38:40.039Z,2.85
2023-09-28T13:43:44.330Z,1.85
2023-09-28T13:48:46.389Z,2.90
2023-09-28T13:53:48.963Z,2.42
2023-09-28T13:58:51.616Z,2.63
2023-09-28T14:03:59.002Z,3.40
2023-09-28T14:09:01.592Z,3.15
2023-09-28T14:14:07.202Z,2.50
2023-09-28T14:19:10.213Z,2.13
2023-09-28T14:24:12.906Z,2.15
2023-09-28T14:29:14.947Z,2.05
2023-09-28T14:34:16.890Z,2.78
2023-09-28T14:39:18.970Z,3.10
2023-09-28T14:44:20.857Z,2.83
2023-09-28T14:49:22.864Z,3.55
2023-09-28T14:54:26.118Z,2.55
2023-09-28T14:59:28.216Z,3.03
2023-09-28T15:04:30.188Z,2.20
2023-09-28T15:09:34.264Z,3.00
2023-09-28T15:14:41.613Z,2.42
2023-09-28T15:19:45.367Z,2.60
2023-09-28T15:24:52.205Z,2.63
2023-09-28T15:29:55.453Z,2.97
2023-09-28T15:34:57.496Z,2.30
2023-09-28T15:40:00.091Z,3.22
2023-09-28T15:45:09.789Z,3.08
2023-09-28T15:50:13.195Z,3.08
2023-09-28T15:55:17.159Z,2.95
2023-09-28T16:00:41.120Z,2.70
2023-09-28T16:05:45.483Z,2.92
2023-09-28T16:10:52.990Z,3.88
2023-09-28T16:15:56.599Z,3.05
2023-09-28T16:21:00.763Z,3.45
2023-09-28T16:26:06.952Z,3.38
2023-09-28T16:31:08.889Z,3.20
2023-09-28T16:36:12.286Z,2.88
2023-09-28T16:41:15.371Z,4.20
2023-09-28T16:46:20.166Z,3.20
2023-09-28T16:51:22.794Z,2.50
2023-09-28T16:56:24.695Z,2.30
2023-09-28T17:01:38.992Z,2.80
2023-09-28T17:06:44.369Z,2.85
2023-09-28T17:11:52.934Z,2.78
2023-09-28T17:16:57.803Z,2.35
2023-09-28T17:22:08.695Z,2.83
2023-09-28T17:27:11.550Z,3.17
2023-09-28T17:32:13.563Z,2.53
2023-09-28T17:37:18.675Z,3.08
2023-09-28T17:42:28.016Z,3.05
2023-09-28T17:47:52.362Z,2.40
2023-09-28T17:52:56.359Z,2.25
2023-09-28T17:58:10.805Z,2.25
2023-09-28T18:03:17.023Z,2.55
2023-09-28T18:08:22.687Z,2.35
2023-09-28T18:13:24.564Z,3.22
2023-09-28T18:18:42.188Z,2.80
2023-09-28T18:24:01.620Z,2.83
2023-09-28T18:29:10.010Z,2.83
2023-09-28T18:34:12.678Z,2.63
2023-09-28T18:39:17.185Z,3.22
2023-09-28T18:44:23.331Z,3.17
2023-09-28T18:49:48.145Z,2.95
2023-09-28T18:55:23.075Z,2.72
2023-09-28T19:00:27.152Z,3.08
2023-09-28T19:05:29.133Z,2.90
2023-09-28T19:10:36.168Z,2.40
2023-09-28T19:15:38.551Z,2.92
2023-09-28T19:20:41.547Z,1.70
2023-09-28T19:25:45.628Z,1.85
2023-09-28T19:30:47.411Z,1.30
2023-09-28T19:35:58.782Z,1.30
2023-09-28T19:41:03.818Z,1.73
2023-09-28T19:46:08.870Z,1.60
2023-09-28T19:51:15.687Z,2.22
2023-09-28T19:56:28.993Z,1.50
2023-09-28T20:01:31.989Z,2.25
2023-09-28T20:06:40.373Z,3.53
2023-09-28T20:11:45.245Z,3.13
2023-09-28T20:16:48.282Z,3.13
2023-09-28T20:22:02.327Z,3.70
2023-09-28T20:27:19.631Z,3.47
2023-09-28T20:32:32.876Z,4.05
2023-09-28T20:37:35.877Z,3.13
2023-09-28T20:42:39.291Z,4.22
2023-09-28T20:47:41.533Z,3.28
2023-09-28T20:52:43.932Z,3.05
2023-09-28T20:57:46.124Z,3.20
2023-09-28T21:02:48.181Z,2.88
2023-09-28T21:07:52.100Z,3.65
2023-09-28T21:12:54.155Z,3.28
2023-09-28T21:17:56.703Z,3.53
2023-09-28T21:22:58.583Z,3.35
2023-09-28T21:28:00.667Z,3.95
2023-09-28T21:33:03.098Z,3.65
2023-09-28T21:38:05.000Z,3.40
2023-09-28T21:43:07.247Z,4.38
2023-09-28T21:48:09.331Z,4.75
2023-09-28T21:53:11.240Z,4.15
2023-09-28T21:58:19.089Z,4.90
2023-09-28T22:03:23.440Z,5.32
2023-09-28T22:08:28.201Z,5.32
2023-09-28T22:13:30.387Z,4.88
2023-09-28T22:18:32.331Z,5.90
2023-09-28T22:23:36.237Z,4.85
2023-09-28T22:28:38.168Z,5.70
2023-09-28T22:33:40.490Z,7.85
2023-09-28T22:38:44.785Z,6.00
2023-09-28T22:43:48.818Z,5.38
2023-09-28T22:48:58.180Z,6.15
2023-09-28T22:54:00.175Z,5.97
2023-09-28T22:59:02.616Z,3.53
2023-09-28T23:04:05.136Z,3.38
2023-09-28T23:09:07.003Z,3.15
2023-09-28T23:14:08.914Z,2.72
2023-09-28T23:19:10.889Z,2.55
2023-09-28T23:24:14.793Z,3.47
2023-09-28T23:29:19.987Z,2.10
2023-09-28T23:34:24.475Z,2.05
2023-09-28T23:39:27.670Z,2.15
2023-09-28T23:44:30.202Z,1.65
2023-09-28T23:49:33.308Z,1.52
2023-09-28T23:54:35.129Z,2.17
2023-09-28T23:59:37.250Z,1.80
